createdAt,value
2017-03-25T00:00:38.884Z,57
2017-03-25T00:01:39.902Z,56
2017-03-25T00:02:40.673Z,57
2017-03-25T00:03:41.444Z,57
2017-03-25T00:04:42.213Z,57
2017-03-25T00:05:42.982Z,57
2017-03-25T00:06:44.004Z,57
2017-03-25T00:07:44.775Z,57
2017-03-25T00:08:45.545Z,57
2017-03-25T00:09:46.317Z,57
2017-03-25T00:10:47.082Z,57
2017-03-25T00:11:48.104Z,57
2017-03-25T00:12:48.875Z,57
2017-03-25T00:13:49.643Z,57
2017-03-25T00:14:50.521Z,57
2017-03-25T00:15:51.268Z,57
2017-03-25T00:17:56.664Z,57
2017-03-25T00:18:57.430Z,57
2017-03-25T00:19:58.202Z,58
2017-03-25T00:20:58.972Z,58
2017-03-25T00:21:59.740Z,58
2017-03-25T00:23:00.510Z,57
2017-03-25T00:24:01.280Z,57
2017-03-25T00:25:02.048Z,57
2017-03-25T00:26:02.859Z,57
2017-03-25T00:27:03.648Z,57
2017-03-25T00:28:04.421Z,58
2017-03-25T00:29:05.191Z,58
2017-03-25T00:30:05.963Z,58
2017-03-25T00:31:06.733Z,58
2017-03-25T00:32:07.798Z,58
2017-03-25T00:33:08.570Z,58
2017-03-25T00:34:09.341Z,58
2017-03-25T00:35:10.109Z,58
2017-03-25T00:36:10.875Z,58
2017-03-25T00:37:12.128Z,58
2017-03-25T00:38:12.898Z,58
2017-03-25T00:39:13.666Z,58
2017-03-25T00:40:14.438Z,58
2017-03-25T00:41:15.208Z,58
2017-03-25T00:42:16.226Z,58
2017-03-25T00:43:16.997Z,59
2017-03-25T00:44:17.859Z,58
2017-03-25T00:45:18.608Z,58
2017-03-25T00:46:19.379Z,58
2017-03-25T00:47:20.395Z,58
2017-03-25T00:48:21.164Z,58
2017-03-25T00:49:21.930Z,58
2017-03-25T00:50:22.697Z,58
2017-03-25T00:51:23.466Z,58
2017-03-25T00:52:24.488Z,59
2017-03-25T00:53:25.252Z,59
2017-03-25T00:54:26.021Z,59
2017-03-25T00:55:26.793Z,58
2017-03-25T00:56:27.559Z,59
2017-03-25T00:57:28.627Z,60
2017-03-25T00:58:29.393Z,58
2017-03-25T00:59:30.163Z,59
2017-03-25T01:00:30.933Z,59
2017-03-25T01:01:31.699Z,59
2017-03-25T01:02:32.720Z,59
2017-03-25T01:03:33.488Z,60
2017-03-25T01:04:34.441Z,59
2017-03-25T01:05:35.214Z,60
2017-03-25T01:06:35.978Z,60
2017-03-25T01:07:36.999Z,59
2017-03-25T01:08:37.761Z,60
2017-03-25T01:09:38.530Z,59
2017-03-25T01:10:39.299Z,60
2017-03-25T01:11:40.070Z,60
2017-03-25T01:12:41.140Z,59
2017-03-25T01:13:41.908Z,60
2017-03-25T01:14:42.679Z,60
2017-03-25T01:15:43.446Z,60
2017-03-25T01:16:44.217Z,60
2017-03-25T01:17:45.286Z,60
2017-03-25T01:18:46.057Z,60
2017-03-25T01:19:46.822Z,60
2017-03-25T01:20:47.591Z,60
2017-03-25T01:21:48.362Z,60
2017-03-25T01:22:49.429Z,61
2017-03-25T01:23:50.198Z,60
2017-03-25T01:24:50.964Z,60
2017-03-25T01:25:51.735Z,60
2017-03-25T01:26:52.498Z,60
2017-03-25T01:27:53.565Z,60
2017-03-25T01:28:54.334Z,61
2017-03-25T01:29:55.103Z,60
2017-03-25T01:30:55.867Z,61
2017-03-25T01:31:56.633Z,60
2017-03-25T01:32:57.648Z,61
2017-03-25T01:33:58.420Z,61
2017-03-25T01:34:59.186Z,61
2017-03-25T01:35:59.954Z,61
2017-03-25T01:37:00.724Z,61
2017-03-25T01:38:01.745Z,61
2017-03-25T01:39:02.511Z,61
2017-03-25T01:40:03.278Z,61
2017-03-25T01:41:04.048Z,61
2017-03-25T01:42:04.815Z,61
2017-03-25T01:43:05.837Z,61
2017-03-25T01:44:06.602Z,61
2017-03-25T01:45:07.373Z,61
2017-03-25T01:46:08.145Z,61
2017-03-25T01:47:08.915Z,61
2017-03-25T01:48:09.929Z,61
2017-03-25T01:49:10.699Z,61
2017-03-25T01:50:11.465Z,61
2017-03-25T01:51:12.234Z,61
2017-03-25T01:52:13.000Z,61
2017-03-25T01:53:14.022Z,61
2017-03-25T01:54:14.793Z,61
2017-03-25T01:55:15.562Z,61
2017-03-25T01:56:16.330Z,61
2017-03-25T01:57:17.101Z,62
2017-03-25T01:58:18.120Z,62
2017-03-25T01:59:18.890Z,62
2017-03-25T02:00:19.660Z,62
2017-03-25T02:01:20.425Z,62
2017-03-25T02:02:21.192Z,62
2017-03-25T02:03:22.207Z,62
2017-03-25T02:04:22.974Z,62
2017-03-25T02:05:23.743Z,62
2017-03-25T02:06:24.513Z,62
2017-03-25T02:07:25.285Z,62
2017-03-25T02:08:26.297Z,62
2017-03-25T02:09:27.065Z,62
2017-03-25T02:10:27.837Z,62
2017-03-25T02:11:28.602Z,62
2017-03-25T02:12:29.371Z,62
2017-03-25T02:13:30.391Z,62
2017-03-25T02:14:31.162Z,62
2017-03-25T02:15:31.928Z,62
2017-03-25T02:16:32.699Z,62
2017-03-25T02:17:33.466Z,62
2017-03-25T02:18:34.481Z,62
2017-03-25T02:19:35.253Z,62
2017-03-25T02:20:36.018Z,62
2017-03-25T02:21:36.790Z,62
2017-03-25T02:22:37.557Z,63
2017-03-25T02:23:38.573Z,62
2017-03-25T02:24:39.345Z,62
2017-03-25T02:25:40.112Z,63
2017-03-25T02:26:40.882Z,62
2017-03-25T02:27:41.649Z,62
2017-03-25T02:28:42.667Z,63
2017-03-25T02:29:43.435Z,62
2017-03-25T02:30:44.202Z,63
2017-03-25T02:31:44.972Z,62
2017-03-25T02:32:45.738Z,62
2017-03-25T02:33:46.756Z,62
2017-03-25T02:34:47.525Z,62
2017-03-25T02:35:48.298Z,63
2017-03-25T02:36:49.067Z,63
2017-03-25T02:37:49.831Z,62
2017-03-25T02:38:50.854Z,62
2017-03-25T02:39:51.623Z,63
2017-03-25T02:40:52.393Z,63
2017-03-25T02:41:53.164Z,63
2017-03-25T02:42:53.927Z,63
2017-03-25T02:43:54.948Z,62
2017-03-25T02:44:55.718Z,63
2017-03-25T02:45:56.489Z,63
2017-03-25T02:46:57.255Z,63
2017-03-25T02:47:58.023Z,63
2017-03-25T02:48:59.038Z,64
2017-03-25T02:49:59.811Z,63
2017-03-25T02:51:00.586Z,63
2017-03-25T02:52:01.347Z,63
2017-03-25T02:53:02.116Z,63
2017-03-25T02:54:03.132Z,63
2017-03-25T02:55:03.900Z,63
2017-03-25T02:56:04.668Z,63
2017-03-25T02:57:05.690Z,63
2017-03-25T02:58:06.460Z,63
2017-03-25T02:59:07.230Z,63
2017-03-25T03:00:07.996Z,64
2017-03-25T03:01:08.770Z,63
2017-03-25T03:02:09.783Z,63
2017-03-25T03:03:10.554Z,64
2017-03-25T03:04:11.330Z,64
2017-03-25T03:05:12.101Z,64
2017-03-25T03:06:12.870Z,64
2017-03-25T03:07:14.076Z,63
2017-03-25T03:08:14.847Z,64
2017-03-25T03:09:15.620Z,64
2017-03-25T03:10:16.390Z,63
2017-03-25T03:11:17.159Z,63
2017-03-25T03:12:18.140Z,63
2017-03-25T03:13:18.907Z,63
2017-03-25T03:14:19.680Z,64
2017-03-25T03:15:20.453Z,63
2017-03-25T03:16:21.217Z,64
2017-03-25T03:17:22.239Z,64
2017-03-25T03:18:23.005Z,64
2017-03-25T03:19:23.776Z,64
2017-03-25T03:20:24.544Z,64
2017-03-25T03:21:25.311Z,64
2017-03-25T03:22:26.335Z,64
2017-03-25T03:23:27.103Z,64
2017-03-25T03:24:27.874Z,64
2017-03-25T03:25:28.646Z,64
2017-03-25T03:26:29.610Z,64
2017-03-25T03:27:30.627Z,65
2017-03-25T03:28:31.399Z,64
2017-03-25T03:29:32.164Z,64
2017-03-25T03:30:32.936Z,64
2017-03-25T03:31:33.709Z,65
2017-03-25T03:32:34.724Z,64
2017-03-25T03:33:35.493Z,64
2017-03-25T03:34:36.263Z,65
2017-03-25T03:35:37.029Z,65
2017-03-25T03:36:37.797Z,65
2017-03-25T03:37:38.815Z,65
2017-03-25T03:38:39.587Z,65
2017-03-25T03:39:40.355Z,65
2017-03-25T03:40:41.124Z,65
2017-03-25T03:41:41.893Z,66
2017-03-25T03:42:42.913Z,66
2017-03-25T03:43:43.679Z,66
2017-03-25T03:44:44.450Z,65
2017-03-25T03:45:45.412Z,65
2017-03-25T03:46:46.184Z,66
2017-03-25T03:47:47.202Z,66
2017-03-25T03:48:47.972Z,66
2017-03-25T03:49:48.740Z,66
2017-03-25T03:50:49.509Z,66
2017-03-25T03:51:50.276Z,66
2017-03-25T03:52:51.299Z,66
2017-03-25T03:53:52.070Z,66
2017-03-25T03:54:52.835Z,66
2017-03-25T03:55:53.609Z,66
2017-03-25T03:56:54.377Z,66
2017-03-25T03:57:55.398Z,66
2017-03-25T03:58:56.165Z,66
2017-03-25T03:59:56.937Z,66
2017-03-25T04:00:57.704Z,66
2017-03-25T04:01:58.471Z,66
2017-03-25T04:02:59.499Z,66
2017-03-25T04:04:00.264Z,67
2017-03-25T04:05:01.036Z,66
2017-03-25T04:06:01.806Z,66
2017-03-25T04:07:02.582Z,67
2017-03-25T04:08:03.596Z,67
2017-03-25T04:09:04.367Z,67
2017-03-25T04:10:05.138Z,67
2017-03-25T04:11:05.909Z,67
2017-03-25T04:12:06.678Z,67
2017-03-25T04:13:07.702Z,67
2017-03-25T04:14:08.473Z,67
2017-03-25T04:15:09.244Z,67
2017-03-25T04:16:10.013Z,67
2017-03-25T04:17:10.780Z,68
2017-03-25T04:18:11.797Z,67
2017-03-25T04:19:12.568Z,67
2017-03-25T04:20:13.336Z,67
2017-03-25T04:21:14.102Z,67
2017-03-25T04:22:14.871Z,68
2017-03-25T04:23:15.892Z,68
2017-03-25T04:24:16.662Z,68
2017-03-25T04:25:17.430Z,67
2017-03-25T04:26:18.203Z,68
2017-03-25T04:27:18.975Z,68
2017-03-25T04:28:20.001Z,67
2017-03-25T04:29:20.763Z,67
2017-03-25T04:30:21.531Z,68
2017-03-25T04:31:22.304Z,68
2017-03-25T04:32:23.072Z,68
2017-03-25T04:33:24.090Z,68
2017-03-25T04:34:24.859Z,68
2017-03-25T04:35:25.629Z,68
2017-03-25T04:36:26.397Z,68
2017-03-25T04:37:27.165Z,68
2017-03-25T04:38:28.188Z,68
2017-03-25T04:39:28.956Z,68
2017-03-25T04:40:29.724Z,68
2017-03-25T04:41:30.494Z,69
2017-03-25T04:42:31.262Z,69
2017-03-25T04:43:32.283Z,69
2017-03-25T04:44:33.048Z,68
2017-03-25T04:45:33.819Z,69
2017-03-25T04:46:34.684Z,68
2017-03-25T04:47:35.509Z,69
2017-03-25T04:48:36.596Z,69
2017-03-25T04:49:37.369Z,69
2017-03-25T04:50:38.135Z,69
2017-03-25T04:51:38.910Z,68
2017-03-25T04:52:39.674Z,69
2017-03-25T04:53:40.805Z,69
2017-03-25T04:54:42.597Z,69
2017-03-25T04:55:43.380Z,69
2017-03-25T04:56:44.254Z,69
2017-03-25T04:57:45.039Z,69
2017-03-25T04:58:46.314Z,69
2017-03-25T04:59:47.130Z,69
2017-03-25T05:00:48.827Z,69
2017-03-25T05:01:49.718Z,69
2017-03-25T05:02:50.576Z,69
2017-03-25T05:03:51.637Z,69
2017-03-25T05:04:52.496Z,69
2017-03-25T05:05:53.274Z,69
2017-03-25T05:06:54.044Z,69
2017-03-25T05:07:54.851Z,70
2017-03-25T05:08:55.997Z,69
2017-03-25T05:09:56.846Z,70
2017-03-25T05:10:57.611Z,69
2017-03-25T05:11:58.383Z,69
2017-03-25T05:12:59.150Z,70
2017-03-25T05:14:00.173Z,70
2017-03-25T05:15:00.947Z,70
2017-03-25T05:16:01.721Z,69
2017-03-25T05:17:02.505Z,70
2017-03-25T05:18:03.261Z,70
2017-03-25T05:19:04.282Z,70
2017-03-25T05:20:05.112Z,70
2017-03-25T05:21:05.882Z,70
2017-03-25T05:22:06.669Z,70
2017-03-25T05:23:07.469Z,70
2017-03-25T05:24:08.492Z,70
2017-03-25T05:25:09.263Z,70
2017-03-25T05:26:10.038Z,71
2017-03-25T05:27:10.907Z,70
2017-03-25T05:28:11.637Z,70
2017-03-25T05:29:12.661Z,70
2017-03-25T05:30:13.473Z,70
2017-03-25T05:31:14.244Z,70
2017-03-25T05:32:15.051Z,70
2017-03-25T05:33:15.916Z,70
2017-03-25T05:34:16.940Z,70
2017-03-25T05:35:17.713Z,70
2017-03-25T05:36:18.484Z,70
2017-03-25T05:37:19.254Z,70
2017-03-25T05:38:21.039Z,70
2017-03-25T05:39:22.067Z,70
2017-03-25T05:40:22.842Z,70
2017-03-25T05:41:23.616Z,70
2017-03-25T05:42:24.386Z,70
2017-03-25T05:43:25.156Z,69
2017-03-25T05:44:26.186Z,69
2017-03-25T05:45:26.993Z,69
2017-03-25T05:46:27.765Z,69
2017-03-25T05:47:28.630Z,70
2017-03-25T05:48:29.423Z,70
2017-03-25T05:49:30.590Z,70
2017-03-25T05:50:31.382Z,69
2017-03-25T05:51:32.177Z,69
2017-03-25T05:52:32.947Z,69
2017-03-25T05:53:33.720Z,69
2017-03-25T05:54:34.739Z,69
2017-03-25T05:55:35.514Z,69
2017-03-25T05:56:36.285Z,69
2017-03-25T05:57:37.057Z,68
2017-03-25T05:58:37.829Z,69
2017-03-25T05:59:38.936Z,69
2017-03-25T06:00:39.703Z,69
2017-03-25T06:01:40.479Z,69
2017-03-25T06:02:41.254Z,68
2017-03-25T06:03:42.107Z,68
2017-03-25T06:04:43.135Z,69
2017-03-25T06:05:43.900Z,68
2017-03-25T06:06:44.675Z,69
2017-03-25T06:07:45.450Z,68
2017-03-25T06:08:46.222Z,69
2017-03-25T06:09:47.246Z,68
2017-03-25T06:10:48.019Z,68
2017-03-25T06:11:48.791Z,67
2017-03-25T06:12:49.568Z,68
2017-03-25T06:13:50.343Z,68
2017-03-25T06:14:51.366Z,68
2017-03-25T06:15:52.139Z,67
2017-03-25T06:16:52.917Z,68
2017-03-25T06:17:53.693Z,67
2017-03-25T06:18:54.466Z,67
2017-03-25T06:19:55.508Z,67
2017-03-25T06:20:56.263Z,67
2017-03-25T06:21:57.040Z,67
2017-03-25T06:22:57.812Z,67
2017-03-25T06:23:58.586Z,67
2017-03-25T06:24:59.616Z,67
2017-03-25T06:26:00.388Z,66
2017-03-25T06:27:01.162Z,66
2017-03-25T06:28:01.940Z,66
2017-03-25T06:29:02.712Z,66
2017-03-25T06:30:03.789Z,66
2017-03-25T06:31:04.567Z,65
2017-03-25T06:32:05.341Z,64
2017-03-25T06:33:06.120Z,64
2017-03-25T06:34:06.898Z,64
2017-03-25T06:35:07.923Z,64
2017-03-25T06:36:08.699Z,64
2017-03-25T06:37:09.478Z,63
2017-03-25T06:38:10.252Z,63
2017-03-25T06:39:11.032Z,63
2017-03-25T06:40:12.065Z,62
2017-03-25T06:41:12.839Z,62
2017-03-25T06:42:13.617Z,62
2017-03-25T06:43:14.393Z,61
2017-03-25T06:44:15.171Z,61
2017-03-25T06:45:16.198Z,61
2017-03-25T06:46:16.978Z,60
2017-03-25T06:47:17.756Z,59
2017-03-25T06:48:18.531Z,59
2017-03-25T06:49:19.308Z,59
2017-03-25T06:50:20.339Z,58
2017-03-25T06:51:21.122Z,57
2017-03-25T06:52:21.896Z,58
2017-03-25T06:53:22.680Z,57
2017-03-25T06:54:23.457Z,56
2017-03-25T06:55:24.485Z,56
2017-03-25T06:56:25.269Z,55
2017-03-25T06:57:26.041Z,54
2017-03-25T06:58:26.824Z,54
2017-03-25T06:59:27.604Z,53
2017-03-25T07:00:28.636Z,53
2017-03-25T07:01:29.414Z,52
2017-03-25T07:02:30.199Z,50
2017-03-25T07:03:30.983Z,50
2017-03-25T07:04:31.760Z,50
2017-03-25T07:05:32.795Z,48
2017-03-25T07:06:33.580Z,48
2017-03-25T07:07:34.362Z,47
2017-03-25T07:08:35.147Z,45
2017-03-25T07:09:35.929Z,45
2017-03-25T07:10:36.965Z,45
2017-03-25T07:11:37.752Z,43
2017-03-25T07:12:38.533Z,45
2017-03-25T07:13:39.321Z,44
2017-03-25T07:14:40.102Z,43
2017-03-25T07:15:41.139Z,42
2017-03-25T07:16:41.923Z,41
2017-03-25T07:17:42.706Z,41
2017-03-25T07:18:43.491Z,40
2017-03-25T07:19:44.276Z,39
2017-03-25T07:20:45.315Z,39
2017-03-25T07:21:46.102Z,39
2017-03-25T07:22:46.886Z,38
2017-03-25T07:23:47.673Z,37
2017-03-25T07:24:48.457Z,36
2017-03-25T07:25:49.543Z,36
2017-03-25T07:26:50.330Z,37
2017-03-25T07:27:51.117Z,36
2017-03-25T07:28:51.902Z,36
2017-03-25T07:29:52.691Z,35
2017-03-25T07:30:53.725Z,34
2017-03-25T07:31:54.516Z,36
2017-03-25T07:32:55.300Z,34
2017-03-25T07:33:56.087Z,34
2017-03-25T07:34:56.876Z,33
2017-03-25T07:35:57.912Z,33
2017-03-25T07:36:58.700Z,32
2017-03-25T07:37:59.488Z,32
2017-03-25T07:39:00.274Z,33
2017-03-25T07:40:01.065Z,32
2017-03-25T07:41:02.154Z,31
2017-03-25T07:42:02.940Z,31
2017-03-25T07:43:03.729Z,31
2017-03-25T07:44:04.520Z,31
2017-03-25T07:45:05.311Z,29
2017-03-25T07:46:06.346Z,29
2017-03-25T07:47:07.134Z,29
2017-03-25T07:48:07.925Z,30
2017-03-25T07:49:08.713Z,29
2017-03-25T07:50:09.506Z,28
2017-03-25T07:51:10.544Z,27
2017-03-25T07:52:11.336Z,27
2017-03-25T07:53:12.133Z,27
2017-03-25T07:54:12.915Z,27
2017-03-25T07:55:13.711Z,27
2017-03-25T07:56:14.752Z,26
2017-03-25T07:57:15.548Z,27
2017-03-25T07:58:16.337Z,26
2017-03-25T07:59:17.133Z,26
2017-03-25T08:00:17.923Z,26
2017-03-25T08:01:18.967Z,25
2017-03-25T08:02:19.758Z,24
2017-03-25T08:03:20.549Z,24
2017-03-25T08:04:21.342Z,23
2017-03-25T08:05:22.138Z,24
2017-03-25T08:06:23.189Z,23
2017-03-25T08:07:23.977Z,23
2017-03-25T08:08:24.769Z,23
2017-03-25T08:09:25.562Z,24
2017-03-25T08:10:26.357Z,23
2017-03-25T08:11:27.397Z,23
2017-03-25T08:12:28.186Z,23
2017-03-25T08:13:28.987Z,21
2017-03-25T08:14:29.738Z,22
2017-03-25T08:15:30.525Z,21
2017-03-25T08:16:31.568Z,21
2017-03-25T08:17:32.359Z,22
2017-03-25T08:18:33.149Z,21
2017-03-25T08:19:33.944Z,19
2017-03-25T08:20:34.736Z,19
2017-03-25T08:21:35.776Z,20
2017-03-25T08:22:36.567Z,19
2017-03-25T08:23:37.362Z,19
2017-03-25T08:24:38.153Z,18
2017-03-25T08:25:38.945Z,17
2017-03-25T08:26:39.991Z,18
2017-03-25T08:27:40.787Z,19
2017-03-25T08:28:41.582Z,18
2017-03-25T08:29:42.372Z,17
2017-03-25T08:30:43.169Z,17
2017-03-25T08:31:44.213Z,16
2017-03-25T08:32:45.008Z,16
2017-03-25T08:33:45.804Z,16
2017-03-25T08:34:46.598Z,15
2017-03-25T08:35:47.393Z,16
2017-03-25T08:36:48.439Z,16
2017-03-25T08:37:49.228Z,16
2017-03-25T08:38:50.021Z,16
2017-03-25T08:39:50.814Z,16
2017-03-25T08:40:51.611Z,16
2017-03-25T08:41:52.656Z,15
2017-03-25T08:42:53.451Z,15
2017-03-25T08:43:54.247Z,16
2017-03-25T08:44:55.039Z,16
2017-03-25T08:45:55.837Z,17
2017-03-25T08:46:56.879Z,17
2017-03-25T08:47:57.671Z,16
2017-03-25T08:48:58.469Z,16
2017-03-25T08:49:59.263Z,16
2017-03-25T08:51:00.055Z,16
2017-03-25T08:52:01.100Z,15
2017-03-25T08:53:01.891Z,15
2017-03-25T08:54:02.687Z,14
2017-03-25T08:55:03.482Z,15
2017-03-25T08:56:04.276Z,15
2017-03-25T08:57:05.508Z,14
2017-03-25T08:58:06.304Z,14
2017-03-25T08:59:07.287Z,14
2017-03-25T09:00:08.084Z,14
2017-03-25T09:01:08.876Z,15
2017-03-25T09:02:09.919Z,14
2017-03-25T09:03:10.713Z,14
2017-03-25T09:04:11.507Z,14
2017-03-25T09:05:12.306Z,14
2017-03-25T09:06:13.103Z,14
2017-03-25T09:07:14.148Z,13
2017-03-25T09:08:14.941Z,14
2017-03-25T09:09:15.739Z,15
2017-03-25T09:10:16.540Z,13
2017-03-25T09:11:17.335Z,13
2017-03-25T09:12:18.377Z,13
2017-03-25T09:13:19.178Z,13
2017-03-25T09:14:19.972Z,13
2017-03-25T09:15:20.774Z,13
2017-03-25T09:16:21.566Z,12
2017-03-25T09:17:22.613Z,13
2017-03-25T09:18:23.410Z,12
2017-03-25T09:19:24.207Z,13
2017-03-25T09:20:25.007Z,12
2017-03-25T09:21:25.798Z,12
2017-03-25T09:22:26.843Z,11
2017-03-25T09:23:27.639Z,12
2017-03-25T09:24:28.431Z,11
2017-03-25T09:25:29.229Z,11
2017-03-25T09:26:30.025Z,12
2017-03-25T09:27:31.075Z,12
2017-03-25T09:28:31.872Z,12
2017-03-25T09:29:32.667Z,11
2017-03-25T09:30:33.471Z,11
2017-03-25T09:31:34.271Z,12
2017-03-25T09:32:35.319Z,13
2017-03-25T09:33:36.116Z,12
2017-03-25T09:34:36.911Z,13
2017-03-25T09:35:37.711Z,13
2017-03-25T09:36:38.508Z,14
2017-03-25T09:37:39.556Z,15
2017-03-25T09:38:40.356Z,14
2017-03-25T09:39:41.153Z,13
2017-03-25T09:40:41.952Z,13
2017-03-25T09:41:42.746Z,14
2017-03-25T09:42:43.796Z,13
2017-03-25T09:43:44.597Z,14
2017-03-25T09:44:45.401Z,14
2017-03-25T09:45:46.196Z,14
2017-03-25T09:46:46.996Z,14
2017-03-25T09:47:48.090Z,15
2017-03-25T09:48:48.894Z,14
2017-03-25T09:49:49.683Z,15
2017-03-25T09:50:50.478Z,15
2017-03-25T09:51:51.280Z,15
2017-03-25T09:52:52.322Z,14
2017-03-25T09:53:53.123Z,13
2017-03-25T09:54:53.985Z,13
2017-03-25T09:55:54.804Z,13
2017-03-25T09:56:55.605Z,14
2017-03-25T09:57:56.666Z,14
2017-03-25T09:58:57.462Z,14
2017-03-25T09:59:58.259Z,15
2017-03-25T10:00:59.052Z,15
2017-03-25T10:01:59.851Z,15
2017-03-25T10:03:00.897Z,14
2017-03-25T10:04:01.693Z,14
2017-03-25T10:05:02.493Z,13
2017-03-25T10:06:03.291Z,12
2017-03-25T10:07:04.093Z,12
2017-03-25T10:08:05.140Z,13
2017-03-25T10:09:05.949Z,12
2017-03-25T10:10:06.798Z,11
2017-03-25T10:11:07.601Z,12
2017-03-25T10:12:08.400Z,12
2017-03-25T10:13:09.451Z,12
2017-03-25T10:14:10.252Z,12
2017-03-25T10:15:11.053Z,13
2017-03-25T10:16:11.920Z,13
2017-03-25T10:17:12.720Z,13
2017-03-25T10:18:13.798Z,12
2017-03-25T10:19:14.598Z,11
2017-03-25T10:20:15.491Z,12
2017-03-25T10:21:16.505Z,13
2017-03-25T10:22:17.302Z,13
2017-03-25T10:23:18.459Z,13
2017-03-25T10:24:19.342Z,13
2017-03-25T10:25:20.138Z,12
2017-03-25T10:26:20.975Z,11
2017-03-25T10:27:21.762Z,11
2017-03-25T10:28:22.804Z,9
2017-03-25T10:29:23.678Z,10
2017-03-25T10:30:24.542Z,10
2017-03-25T10:31:25.377Z,9
2017-03-25T10:32:26.194Z,7
2017-03-25T10:33:27.342Z,7
2017-03-25T10:34:28.163Z,7
2017-03-25T10:35:28.961Z,7
2017-03-25T10:36:29.763Z,8
2017-03-25T10:37:30.562Z,7
2017-03-25T10:38:31.712Z,6
2017-03-25T10:39:32.475Z,7
2017-03-25T10:40:33.307Z,8
2017-03-25T10:41:34.158Z,8
2017-03-25T10:42:34.935Z,7
2017-03-25T10:43:36.000Z,7
2017-03-25T10:44:36.857Z,7
2017-03-25T10:45:37.666Z,7
2017-03-25T10:46:38.482Z,6
2017-03-25T10:47:39.275Z,5
2017-03-25T10:48:40.331Z,6
2017-03-25T10:49:41.134Z,6
2017-03-25T10:50:41.936Z,6
2017-03-25T10:51:42.744Z,6
2017-03-25T10:52:43.571Z,7
2017-03-25T10:53:44.633Z,6
2017-03-25T10:54:45.552Z,6
2017-03-25T10:55:46.381Z,5
2017-03-25T10:56:47.186Z,6
2017-03-25T10:57:48.102Z,6
2017-03-25T10:58:49.182Z,6
2017-03-25T10:59:49.989Z,7
2017-03-25T11:00:50.905Z,6
2017-03-25T11:01:51.677Z,6
2017-03-25T11:02:52.480Z,5
2017-03-25T11:03:53.629Z,5
2017-03-25T11:04:54.433Z,6
2017-03-25T11:05:55.240Z,5
2017-03-25T11:06:56.039Z,5
2017-03-25T11:07:56.920Z,4
2017-03-25T11:08:57.966Z,5
2017-03-25T11:09:58.787Z,4
2017-03-25T11:10:59.572Z,5
2017-03-25T11:12:00.470Z,5
2017-03-25T11:13:01.275Z,5
2017-03-25T11:14:02.339Z,5
2017-03-25T11:15:03.140Z,6
2017-03-25T11:16:04.035Z,6
2017-03-25T11:17:04.852Z,6
2017-03-25T11:18:05.764Z,6
2017-03-25T11:19:06.828Z,7
2017-03-25T11:20:07.632Z,7
2017-03-25T11:21:08.467Z,8
2017-03-25T11:22:09.266Z,8
2017-03-25T11:23:10.075Z,8
2017-03-25T11:24:11.129Z,8
2017-03-25T11:25:14.240Z,8
2017-03-25T11:26:15.124Z,8
2017-03-25T11:27:15.988Z,8
2017-03-25T11:28:16.794Z,9
2017-03-25T11:29:17.853Z,8
2017-03-25T11:30:18.663Z,8
2017-03-25T11:31:19.468Z,8
2017-03-25T11:32:20.320Z,6
2017-03-25T11:33:21.150Z,6
2017-03-25T11:34:22.277Z,6
2017-03-25T11:35:23.156Z,6
2017-03-25T11:36:23.955Z,5
2017-03-25T11:37:24.756Z,5
2017-03-25T11:38:25.560Z,5
2017-03-25T11:39:26.619Z,6
2017-03-25T11:40:27.536Z,6
2017-03-25T11:41:28.442Z,5
2017-03-25T11:42:29.266Z,5
2017-03-25T11:43:30.151Z,6
2017-03-25T11:44:31.324Z,5
2017-03-25T11:45:32.114Z,3
2017-03-25T11:46:32.939Z,5
2017-03-25T11:47:33.752Z,4
2017-03-25T11:48:34.664Z,2
2017-03-25T11:49:35.680Z,2
2017-03-25T11:50:36.485Z,2
2017-03-25T11:51:37.308Z,1
2017-03-25T11:52:38.110Z,2
2017-03-25T11:53:39.012Z,3
2017-03-25T11:54:40.216Z,3
2017-03-25T11:55:40.989Z,3
2017-03-25T11:56:41.786Z,3
2017-03-25T11:57:42.660Z,3
2017-03-25T11:58:43.546Z,2
2017-03-25T11:59:44.605Z,3
2017-03-25T12:00:45.437Z,3
2017-03-25T12:01:46.238Z,3
2017-03-25T12:02:47.042Z,2
2017-03-25T12:03:47.845Z,2
2017-03-25T12:04:48.903Z,3
2017-03-25T12:05:49.780Z,3
2017-03-25T12:06:50.586Z,2
2017-03-25T12:07:51.387Z,2
2017-03-25T12:08:52.281Z,2
2017-03-25T12:09:53.347Z,2
2017-03-25T12:10:54.157Z,2
2017-03-25T12:11:55.074Z,2
2017-03-25T12:12:55.910Z,2
2017-03-25T12:13:56.730Z,2
2017-03-25T12:14:58.006Z,1
2017-03-25T12:15:58.785Z,2
2017-03-25T12:16:59.597Z,1
2017-03-25T12:18:00.391Z,1
2017-03-25T12:19:01.314Z,0
2017-03-25T12:20:02.439Z,1
2017-03-25T12:21:03.329Z,1
2017-03-25T12:22:04.163Z,0
2017-03-25T12:23:04.971Z,0
2017-03-25T12:24:05.746Z,0
2017-03-25T12:25:06.847Z,0
2017-03-25T12:26:07.732Z,0
2017-03-25T12:27:08.547Z,0
2017-03-25T12:28:09.355Z,1
2017-03-25T12:29:10.148Z,0
2017-03-25T12:30:11.203Z,0
2017-03-25T12:31:12.003Z,0
2017-03-25T12:32:12.807Z,0
2017-03-25T12:33:13.606Z,0
2017-03-25T12:34:14.411Z,0
2017-03-25T12:35:15.463Z,0
2017-03-25T12:36:16.285Z,1
2017-03-25T12:37:17.092Z,0
2017-03-25T12:38:17.892Z,0
2017-03-25T12:39:18.697Z,0
2017-03-25T12:40:19.800Z,0
2017-03-25T12:41:20.605Z,0
2017-03-25T12:42:21.412Z,0
2017-03-25T12:43:22.216Z,0
2017-03-25T12:44:23.024Z,0
2017-03-25T12:45:24.077Z,0
2017-03-25T12:46:24.877Z,0
2017-03-25T12:47:25.677Z,0
2017-03-25T12:48:26.480Z,0
2017-03-25T12:49:27.280Z,0
2017-03-25T12:50:28.330Z,0
2017-03-25T12:51:29.132Z,0
2017-03-25T12:52:29.932Z,0
2017-03-25T12:53:30.738Z,0
2017-03-25T12:54:31.545Z,0
2017-03-25T12:55:32.601Z,0
2017-03-25T12:56:33.407Z,0
2017-03-25T12:57:34.213Z,0
2017-03-25T12:58:35.013Z,0
2017-03-25T12:59:35.813Z,0
2017-03-25T13:00:36.866Z,0
2017-03-25T13:01:37.675Z,0
2017-03-25T13:02:38.660Z,0
2017-03-25T13:03:39.462Z,0
2017-03-25T13:04:40.285Z,0
2017-03-25T13:05:41.361Z,0
2017-03-25T13:06:42.164Z,0
2017-03-25T13:07:42.970Z,0
2017-03-25T13:08:43.785Z,0
2017-03-25T13:09:44.591Z,0
2017-03-25T13:10:45.649Z,0
2017-03-25T13:11:46.449Z,0
2017-03-25T13:12:47.260Z,0
2017-03-25T13:13:48.058Z,0
2017-03-25T13:14:48.858Z,0
2017-03-25T13:15:49.906Z,2
2017-03-25T13:16:50.710Z,2
2017-03-25T13:17:51.509Z,2
2017-03-25T13:18:52.316Z,0
2017-03-25T13:19:53.117Z,2
2017-03-25T13:20:54.169Z,3
2017-03-25T13:21:54.977Z,0
2017-03-25T13:22:55.770Z,0
2017-03-25T13:23:56.574Z,1
2017-03-25T13:24:57.380Z,0
2017-03-25T13:25:58.434Z,0
2017-03-25T13:26:59.236Z,0
2017-03-25T13:28:00.007Z,0
2017-03-25T13:29:00.829Z,2
2017-03-25T13:30:01.688Z,0
2017-03-25T13:31:02.739Z,1
2017-03-25T13:32:03.537Z,0
2017-03-25T13:33:04.341Z,1
2017-03-25T13:34:05.147Z,1
2017-03-25T13:35:05.969Z,0
2017-03-25T13:36:07.030Z,0
2017-03-25T13:37:07.810Z,0
2017-03-25T13:38:08.616Z,0
2017-03-25T13:39:09.420Z,0
2017-03-25T13:40:10.226Z,0
2017-03-25T13:41:11.343Z,0
2017-03-25T13:42:12.186Z,0
2017-03-25T13:43:12.987Z,1
2017-03-25T13:44:13.788Z,0
2017-03-25T13:45:14.593Z,0
2017-03-25T13:46:15.649Z,0
2017-03-25T13:47:16.443Z,1
2017-03-25T13:48:17.243Z,2
2017-03-25T13:49:18.045Z,1
2017-03-25T13:50:18.846Z,0
2017-03-25T13:51:19.911Z,0
2017-03-25T13:52:20.698Z,0
2017-03-25T13:53:21.499Z,0
2017-03-25T13:54:22.302Z,0
2017-03-25T13:55:23.103Z,2
2017-03-25T13:56:24.148Z,0
2017-03-25T13:57:24.949Z,0
2017-03-25T13:58:25.745Z,1
2017-03-25T13:59:26.540Z,1
2017-03-25T14:00:27.335Z,2
2017-03-25T14:01:28.459Z,1
2017-03-25T14:02:29.254Z,1
2017-03-25T14:03:30.048Z,1
2017-03-25T14:04:30.842Z,1
2017-03-25T14:05:31.636Z,2
2017-03-25T14:06:32.687Z,1
2017-03-25T14:07:33.481Z,0
2017-03-25T14:08:34.276Z,0
2017-03-25T14:09:35.072Z,0
2017-03-25T14:10:35.901Z,0
2017-03-25T14:11:36.944Z,0
2017-03-25T14:12:37.738Z,0
2017-03-25T14:13:38.535Z,2
2017-03-25T14:14:39.331Z,0
2017-03-25T14:15:40.125Z,1
2017-03-25T14:16:41.168Z,1
2017-03-25T14:17:41.959Z,1
2017-03-25T14:18:42.756Z,2
2017-03-25T14:19:43.544Z,3
2017-03-25T14:20:44.365Z,2
2017-03-25T14:21:46.352Z,2
2017-03-25T14:22:47.137Z,1
2017-03-25T14:23:47.931Z,1
2017-03-25T14:24:48.726Z,2
2017-03-25T14:25:49.519Z,1
2017-03-25T14:26:50.562Z,1
2017-03-25T14:27:51.357Z,2
2017-03-25T14:28:52.149Z,3
2017-03-25T14:29:52.943Z,3
2017-03-25T14:30:53.736Z,2
2017-03-25T14:31:54.830Z,3
2017-03-25T14:32:55.625Z,3
2017-03-25T14:33:56.432Z,3
2017-03-25T14:34:57.223Z,3
2017-03-25T14:35:58.014Z,4
2017-03-25T14:36:59.109Z,5
2017-03-25T14:37:59.899Z,4